Memphis International Airport
KMEM : now visible

Airfield :











YOU CAN JOIN US ON...

 
LOGIN :

Register | Disclaimer

   EN    FR    IT 

 









Legend :    VFR   Marginal VFR   IFR   Intensive IFR   Very Intensive IFR
Visi :
Ceiling :
>= 8 km
>= 3000ft
5 to 8 km
1000 to 3000 ft
1500m to 5 km
500 to 1000 ft
800 to 1500m
200 to 500 ft
< 800m
< 200 ft
Symbols :   Thunderstorms  Fog  Heavy snow  Heavy precipitations  Wind > 20 kt






- Airport Elevation : 341 ft
- IATA code : MEM


KMEM - Memphis International

CURRENT METAR :
  • 162054Z 05007KT 10SM CLR 14/M01 A3016 RMK AO2 SLP213 T01441006 56026

EXPIRED METARs :
  • 161954Z 03010KT 10SM CLR 14/M01 A3018 RMK AO2 SLP219 T01391006
  • 161854Z 02006KT 10SM CLR 13/M01 A3021 RMK AO2 SLP229 T01331011

TAF KMEM
Valid from the 16 at 21:00 until the 18 at 00:00 UTC


162102Z 1621/1724 03007KT P6SM SKC
FM162300 03004KT P6SM SKC
FM171000 VRB02KT P6SM SCT250
FM171800 29005KT P6SM SCT250



MET'MAP, your aeronautical weather chart ! - Copyright ORBIFLY December 2007 - Disclaimer

ORBIFLY MET'MAP TEAM :

Programming & Development : Alexandra Zaïnal
Concept & Development : Baudouin d'Aumeries
Co-Development & Prog : Marc-Olivier Méhu
Technical & hardware support : Manuel Goepfert

Contact : metmap@orbifly.com




SOURCES & CREDITS :

   NOAA       Earth
Advisory